createdAt,value
2023-05-17T00:00:39.000Z,0
2023-05-17T00:01:56.000Z,0
2023-05-17T00:03:12.000Z,0
2023-05-17T00:04:28.000Z,0
2023-05-17T00:05:44.000Z,0
2023-05-17T00:07:01.500Z,0
2023-05-17T00:08:17.000Z,0
2023-05-17T00:09:33.000Z,0
2023-05-17T00:10:50.000Z,0
2023-05-17T00:12:06.000Z,0
2023-05-17T00:13:22.000Z,0
2023-05-17T00:14:39.000Z,0
2023-05-17T00:15:55.000Z,0
2023-05-17T00:17:10.000Z,0
2023-05-17T00:18:26.000Z,0
2023-05-17T00:19:43.000Z,0
2023-05-17T00:20:59.000Z,0
2023-05-17T00:22:15.000Z,0
2023-05-17T00:23:32.000Z,0
2023-05-17T00:24:48.000Z,0
2023-05-17T00:26:04.000Z,0
2023-05-17T00:27:20.000Z,0
2023-05-17T00:28:37.000Z,0
2023-05-17T00:29:53.000Z,0
2023-05-17T00:31:09.000Z,0
2023-05-17T00:32:26.000Z,0
2023-05-17T00:33:41.000Z,0
2023-05-17T00:34:57.000Z,0
2023-05-17T00:36:13.000Z,0
2023-05-17T00:37:30.000Z,0
2023-05-17T00:38:46.000Z,0
2023-05-17T00:40:02.000Z,0
2023-05-17T00:41:19.000Z,0
2023-05-17T00:42:35.000Z,0
2023-05-17T00:43:51.000Z,0
2023-05-17T00:45:07.000Z,0
2023-05-17T00:46:24.000Z,0
2023-05-17T00:47:40.000Z,0
2023-05-17T00:48:56.000Z,0
2023-05-17T00:50:12.000Z,0
2023-05-17T00:51:28.000Z,0
2023-05-17T00:52:44.000Z,0
2023-05-17T00:54:00.000Z,0
2023-05-17T00:55:17.000Z,0
2023-05-17T00:56:33.000Z,0
2023-05-17T00:57:49.000Z,0
2023-05-17T00:59:06.000Z,0
2023-05-17T01:00:22.000Z,0
2023-05-17T01:01:38.000Z,0
2023-05-17T01:02:54.000Z,0
2023-05-17T01:04:11.000Z,0
2023-05-17T01:05:27.000Z,0
2023-05-17T01:06:42.000Z,0
2023-05-17T01:07:59.000Z,0
2023-05-17T01:09:15.000Z,0
2023-05-17T01:10:31.957Z,0
2023-05-17T01:11:47.000Z,0
2023-05-17T01:13:04.000Z,0
2023-05-17T01:14:20.000Z,0
2023-05-17T01:15:36.000Z,0
2023-05-17T01:16:53.000Z,0
2023-05-17T01:18:09.000Z,0
2023-05-17T01:19:25.000Z,0
2023-05-17T01:20:41.000Z,0
2023-05-17T01:21:58.000Z,0
2023-05-17T01:23:13.000Z,0
2023-05-17T01:24:29.000Z,0
2023-05-17T01:25:46.000Z,0
2023-05-17T01:27:02.000Z,0
2023-05-17T01:28:18.000Z,0
2023-05-17T01:29:35.000Z,0
2023-05-17T01:30:51.000Z,0
2023-05-17T01:32:07.000Z,0
2023-05-17T01:33:23.000Z,0
2023-05-17T01:34:40.000Z,0
2023-05-17T01:35:56.000Z,0
2023-05-17T01:37:12.000Z,0
2023-05-17T01:38:29.000Z,0
2023-05-17T01:39:44.000Z,0
2023-05-17T01:41:00.000Z,0
2023-05-17T01:42:16.000Z,0
2023-05-17T01:43:33.000Z,0
2023-05-17T01:44:49.000Z,0
2023-05-17T01:46:05.000Z,0
2023-05-17T01:47:22.000Z,0
2023-05-17T01:48:38.000Z,0
2023-05-17T01:49:54.000Z,0
2023-05-17T01:51:11.148Z,0
2023-05-17T01:52:27.000Z,0
2023-05-17T01:53:43.000Z,0
2023-05-17T01:54:59.000Z,0
2023-05-17T01:56:15.000Z,0
2023-05-17T01:57:31.000Z,0
2023-05-17T01:58:47.000Z,0
2023-05-17T02:00:03.000Z,0
2023-05-17T02:01:20.000Z,0
2023-05-17T02:02:36.000Z,0
2023-05-17T02:03:52.000Z,0
2023-05-17T02:05:09.000Z,0
2023-05-17T02:06:25.000Z,0
2023-05-17T02:07:41.000Z,0
2023-05-17T02:08:57.000Z,0
2023-05-17T02:10:14.000Z,0
2023-05-17T02:11:30.000Z,0
2023-05-17T02:12:45.000Z,0
2023-05-17T02:14:02.000Z,0
2023-05-17T02:15:18.000Z,0
2023-05-17T02:16:34.000Z,0
2023-05-17T02:17:50.000Z,0
2023-05-17T02:19:07.000Z,0
2023-05-17T02:20:22.000Z,0
2023-05-17T02:21:38.000Z,0
2023-05-17T02:22:55.000Z,0
2023-05-17T02:24:11.000Z,0
2023-05-17T02:25:27.000Z,0
2023-05-17T02:26:44.000Z,0
2023-05-17T02:28:00.000Z,0
2023-05-17T02:29:16.000Z,0
2023-05-17T02:30:32.000Z,0
2023-05-17T02:31:49.000Z,0
2023-05-17T02:33:05.000Z,0
2023-05-17T02:34:21.000Z,0
2023-05-17T02:35:38.000Z,0
2023-05-17T02:36:53.000Z,0
2023-05-17T02:38:09.000Z,0
2023-05-17T02:39:25.000Z,0
2023-05-17T02:40:42.000Z,0
2023-05-17T02:41:58.000Z,0
2023-05-17T02:43:14.000Z,0
2023-05-17T02:44:31.000Z,0
2023-05-17T02:45:47.000Z,0
2023-05-17T02:47:03.000Z,0
2023-05-17T02:48:19.000Z,0
2023-05-17T02:49:36.000Z,0
2023-05-17T02:50:52.000Z,0
2023-05-17T02:52:08.000Z,0
2023-05-17T02:53:24.000Z,0
2023-05-17T02:54:40.000Z,1
2023-05-17T02:55:56.000Z,0
2023-05-17T02:57:12.000Z,0
2023-05-17T02:58:29.000Z,1
2023-05-17T02:59:45.000Z,1
2023-05-17T03:01:01.000Z,1
2023-05-17T03:02:17.000Z,0
2023-05-17T03:03:34.000Z,2
2023-05-17T03:04:50.000Z,2
2023-05-17T03:06:06.000Z,1
2023-05-17T03:07:22.000Z,0
2023-05-17T03:08:39.000Z,4
2023-05-17T03:09:54.000Z,3
2023-05-17T03:11:10.000Z,3
2023-05-17T03:12:26.000Z,6
2023-05-17T03:13:43.000Z,7
2023-05-17T03:14:59.000Z,6
2023-05-17T03:16:15.000Z,7
2023-05-17T03:17:31.000Z,4
2023-05-17T03:18:48.000Z,11
2023-05-17T03:20:04.000Z,13
2023-05-17T03:21:20.000Z,14
2023-05-17T03:22:36.727Z,16
2023-05-17T03:23:52.000Z,20
2023-05-17T03:25:09.000Z,22
2023-05-17T03:26:24.000Z,25
2023-05-17T03:27:40.000Z,28
2023-05-17T03:28:56.000Z,42
2023-05-17T03:30:13.000Z,40
2023-05-17T03:31:29.000Z,48
2023-05-17T03:32:45.000Z,52
2023-05-17T03:34:01.000Z,56
2023-05-17T03:35:18.000Z,67
2023-05-17T03:36:34.000Z,76
2023-05-17T03:37:50.000Z,81
2023-05-17T03:39:06.000Z,87
2023-05-17T03:40:23.000Z,98
2023-05-17T03:41:39.000Z,107
2023-05-17T03:42:54.000Z,116
2023-05-17T03:44:10.000Z,124
2023-05-17T03:45:26.000Z,137
2023-05-17T03:46:43.000Z,145
2023-05-17T03:47:59.000Z,160
2023-05-17T03:49:15.000Z,174
2023-05-17T03:50:31.000Z,183
2023-05-17T03:51:48.000Z,198
2023-05-17T03:53:04.000Z,210
2023-05-17T03:54:20.000Z,224
2023-05-17T03:55:36.000Z,238
2023-05-17T03:56:53.000Z,254
2023-05-17T03:58:09.000Z,270
2023-05-17T03:59:24.000Z,288
2023-05-17T04:00:40.000Z,300
2023-05-17T04:01:57.000Z,315
2023-05-17T04:03:13.000Z,333
2023-05-17T04:04:29.000Z,348
2023-05-17T04:05:45.000Z,367
2023-05-17T04:07:01.000Z,383
2023-05-17T04:08:18.000Z,401
2023-05-17T04:09:34.000Z,418
2023-05-17T04:10:50.000Z,435
2023-05-17T04:12:06.000Z,453
2023-05-17T04:13:23.000Z,470
2023-05-17T04:14:39.000Z,491
2023-05-17T04:15:54.000Z,508
2023-05-17T04:17:10.000Z,527
2023-05-17T04:18:27.000Z,544
2023-05-17T04:19:43.000Z,561
2023-05-17T04:20:59.000Z,582
2023-05-17T04:22:15.000Z,592
2023-05-17T04:23:31.000Z,597
2023-05-17T04:24:48.000Z,624
2023-05-17T04:26:04.000Z,650
2023-05-17T04:27:20.000Z,679
2023-05-17T04:28:36.000Z,710
2023-05-17T04:29:53.000Z,728
2023-05-17T04:31:09.000Z,757
2023-05-17T04:32:24.000Z,769
2023-05-17T04:33:40.000Z,791
2023-05-17T04:34:57.000Z,809
2023-05-17T04:36:13.000Z,832
2023-05-17T04:37:29.000Z,845
2023-05-17T04:38:45.000Z,875
2023-05-17T04:40:02.264Z,896
2023-05-17T04:41:18.000Z,906
2023-05-17T04:42:34.000Z,928
2023-05-17T04:43:50.000Z,948
2023-05-17T04:45:06.000Z,968
2023-05-17T04:46:23.000Z,980
2023-05-17T04:47:39.686Z,1001
2023-05-17T04:48:54.000Z,1018
2023-05-17T04:50:10.000Z,1036
2023-05-17T04:51:27.000Z,1058
2023-05-17T04:52:43.000Z,1081
2023-05-17T04:53:59.000Z,1095
2023-05-17T04:55:15.000Z,1118
2023-05-17T04:56:32.000Z,1139
2023-05-17T04:57:48.000Z,1151
2023-05-17T04:59:04.000Z,1180
2023-05-17T05:00:20.000Z,1193
2023-05-17T05:01:37.000Z,1209
2023-05-17T05:02:53.000Z,1237
2023-05-17T05:04:09.000Z,1241
2023-05-17T05:05:24.000Z,1361
2023-05-17T05:06:40.000Z,1241
2023-05-17T05:07:57.000Z,1350
2023-05-17T05:09:13.000Z,1222
2023-05-17T05:10:29.000Z,1169
2023-05-17T05:11:45.000Z,1157
2023-05-17T05:13:02.000Z,1135
2023-05-17T05:14:18.000Z,1343
2023-05-17T05:15:34.000Z,1427
2023-05-17T05:16:50.000Z,1448
2023-05-17T05:18:07.000Z,1446
2023-05-17T05:19:23.000Z,1479
2023-05-17T05:20:39.000Z,1459
2023-05-17T05:21:54.000Z,1472
2023-05-17T05:23:11.000Z,1497
2023-05-17T05:24:27.000Z,1564
2023-05-17T05:25:43.000Z,1608
2023-05-17T05:26:59.000Z,1581
2023-05-17T05:28:15.000Z,1589
2023-05-17T05:29:32.000Z,1586
2023-05-17T05:30:48.000Z,1623
2023-05-17T05:32:04.000Z,1624
2023-05-17T05:33:20.000Z,1653
2023-05-17T05:34:37.000Z,1670
2023-05-17T05:35:53.000Z,1837
2023-05-17T05:37:09.000Z,1633
2023-05-17T05:38:24.000Z,1145
2023-05-17T05:39:41.000Z,1716
2023-05-17T05:40:57.000Z,1760
2023-05-17T05:42:13.000Z,1771
2023-05-17T05:43:29.000Z,1830
2023-05-17T05:44:46.000Z,1809
2023-05-17T05:46:02.000Z,1853
2023-05-17T05:47:18.000Z,1862
2023-05-17T05:48:34.000Z,1893
2023-05-17T05:49:50.000Z,1851
2023-05-17T05:51:07.000Z,1894
2023-05-17T05:52:23.000Z,1939
2023-05-17T05:53:39.000Z,1958
2023-05-17T05:54:54.000Z,1970
2023-05-17T05:56:11.000Z,1995
2023-05-17T05:57:27.000Z,2005
2023-05-17T05:58:43.000Z,2027
2023-05-17T06:00:00.076Z,2030
2023-05-17T06:01:16.000Z,2045
2023-05-17T06:02:32.000Z,2044
2023-05-17T06:03:48.000Z,2049
2023-05-17T06:05:04.000Z,2082
2023-05-17T06:06:20.000Z,2058
2023-05-17T06:07:37.000Z,2046
2023-05-17T06:08:53.000Z,2225
2023-05-17T06:10:09.000Z,2291
2023-05-17T06:11:24.000Z,2267
2023-05-17T06:12:41.000Z,2229
2023-05-17T06:13:57.655Z,2346
2023-05-17T06:15:13.000Z,2561
2023-05-17T06:16:29.000Z,2954
2023-05-17T06:17:46.000Z,1603
2023-05-17T06:19:02.000Z,2411
2023-05-17T06:20:18.000Z,2429
2023-05-17T06:21:34.000Z,2408
2023-05-17T06:22:51.000Z,3054
2023-05-17T06:24:07.000Z,2850
2023-05-17T06:25:23.000Z,1421
2023-05-17T06:26:39.000Z,3107
2023-05-17T06:27:54.000Z,1183
2023-05-17T06:29:11.446Z,3062
2023-05-17T06:30:27.000Z,922
2023-05-17T06:31:43.000Z,3513
2023-05-17T06:32:59.000Z,2760
2023-05-17T06:34:16.000Z,2356
2023-05-17T06:35:31.000Z,2069
2023-05-17T06:36:47.000Z,1896
2023-05-17T06:38:03.000Z,2461
2023-05-17T06:40:36.000Z,1223
2023-05-17T06:41:52.822Z,3276
2023-05-17T06:43:08.000Z,2815
2023-05-17T06:44:25.000Z,3558
2023-05-17T06:45:41.000Z,3861
2023-05-17T06:46:57.000Z,2223
2023-05-17T06:48:13.000Z,2644
2023-05-17T06:49:29.000Z,1461
2023-05-17T06:50:46.000Z,3435
2023-05-17T06:52:01.000Z,4727
2023-05-17T06:53:17.000Z,2617
2023-05-17T06:55:50.000Z,2694
2023-05-17T06:57:06.000Z,2630
2023-05-17T06:58:22.000Z,1663
2023-05-17T06:59:38.000Z,3394
2023-05-17T07:00:55.000Z,2077
2023-05-17T07:02:11.000Z,2200
2023-05-17T07:03:27.000Z,2425
2023-05-17T07:04:43.000Z,2221
2023-05-17T07:06:00.000Z,2267
2023-05-17T07:07:16.000Z,2155
2023-05-17T07:08:32.000Z,1882
2023-05-17T07:09:48.000Z,1823
2023-05-17T07:11:03.000Z,1909
2023-05-17T07:12:20.000Z,825
2023-05-17T07:13:36.000Z,2933
2023-05-17T07:14:52.000Z,3467
2023-05-17T07:16:08.000Z,2931
2023-05-17T07:17:25.000Z,3429
2023-05-17T07:18:41.000Z,2665
2023-05-17T07:19:57.000Z,2791
2023-05-17T07:21:13.000Z,2524
2023-05-17T07:22:30.000Z,2739
2023-05-17T07:23:46.000Z,2678
2023-05-17T07:25:02.000Z,1030
2023-05-17T07:26:18.000Z,2711
2023-05-17T07:27:34.000Z,3635
2023-05-17T07:28:50.000Z,3788
2023-05-17T07:30:06.000Z,3817
2023-05-17T07:31:22.000Z,3928
2023-05-17T07:32:39.183Z,3983
2023-05-17T07:33:55.000Z,4059
2023-05-17T07:35:11.000Z,4057
2023-05-17T07:36:27.000Z,4066
2023-05-17T07:37:43.000Z,3813
2023-05-17T07:39:00.000Z,3800
2023-05-17T07:40:16.000Z,4377
2023-05-17T07:41:32.000Z,5008
2023-05-17T07:42:48.000Z,5656
2023-05-17T07:44:04.000Z,6256
2023-05-17T07:45:20.000Z,5178
2023-05-17T07:46:36.000Z,6471
2023-05-17T07:47:52.000Z,5481
2023-05-17T07:49:08.000Z,3181
2023-05-17T07:50:25.000Z,6314
2023-05-17T07:51:41.000Z,7814
2023-05-17T07:52:57.000Z,4391
2023-05-17T07:54:14.164Z,5363
2023-05-17T07:55:30.000Z,5352
2023-05-17T07:56:46.000Z,4917
2023-05-17T07:59:18.000Z,4292
2023-05-17T08:00:34.000Z,4439
2023-05-17T08:01:50.000Z,4452
2023-05-17T08:03:06.000Z,4313
2023-05-17T08:04:22.000Z,2665
2023-05-17T08:05:39.275Z,6306
2023-05-17T08:06:55.000Z,3781
2023-05-17T08:08:11.000Z,4425
2023-05-17T08:09:27.000Z,1807
2023-05-17T08:12:00.000Z,5296
2023-05-17T08:13:16.000Z,6200
2023-05-17T08:14:32.939Z,7881
2023-05-17T08:15:48.000Z,6301
2023-05-17T08:17:04.408Z,1614
2023-05-17T08:18:20.000Z,5434
2023-05-17T08:19:36.000Z,6529
2023-05-17T08:20:52.000Z,8839
2023-05-17T08:22:09.000Z,5210
2023-05-17T08:23:25.577Z,5373
2023-05-17T08:24:41.000Z,5561
2023-05-17T08:25:57.000Z,4782
2023-05-17T08:27:14.000Z,6188
2023-05-17T08:28:30.000Z,4639
2023-05-17T08:29:46.000Z,4886
2023-05-17T08:31:02.000Z,3058
2023-05-17T08:32:18.000Z,8980
2023-05-17T08:33:34.000Z,4284
2023-05-17T08:34:50.000Z,6418
2023-05-17T08:36:06.000Z,4176
2023-05-17T08:37:22.000Z,6704
2023-05-17T08:38:39.000Z,5265
2023-05-17T08:39:55.000Z,5288
2023-05-17T08:41:11.000Z,5400
2023-05-17T08:42:27.000Z,4284
2023-05-17T08:43:44.000Z,5189
2023-05-17T08:45:00.000Z,3279
2023-05-17T08:46:16.000Z,4497
2023-05-17T08:47:32.000Z,5883
2023-05-17T08:48:49.000Z,7374
2023-05-17T08:50:04.000Z,6490
2023-05-17T08:51:20.000Z,5670
2023-05-17T08:52:36.000Z,5307
2023-05-17T08:53:52.000Z,4894
2023-05-17T08:55:09.000Z,4318
2023-05-17T08:56:25.000Z,4070
2023-05-17T08:57:41.000Z,3639
2023-05-17T08:58:57.000Z,3388
2023-05-17T09:00:14.000Z,2972
2023-05-17T09:01:30.000Z,3116
2023-05-17T09:02:46.000Z,3183
2023-05-17T09:04:02.000Z,3049
2023-05-17T09:05:19.000Z,3872
2023-05-17T09:06:34.000Z,3504
2023-05-17T09:07:50.000Z,3383
2023-05-17T09:09:06.000Z,4075
2023-05-17T09:10:22.000Z,3919
2023-05-17T09:11:39.000Z,5355
2023-05-17T09:12:55.000Z,4787
2023-05-17T09:14:11.925Z,5022
2023-05-17T09:15:27.000Z,5371
2023-05-17T09:16:44.000Z,4904
2023-05-17T09:18:00.000Z,4168
2023-05-17T09:19:16.000Z,4001
2023-05-17T09:20:32.000Z,3857
2023-05-17T09:21:49.000Z,3491
2023-05-17T09:23:04.000Z,3232
2023-05-17T09:24:20.000Z,1348
2023-05-17T09:25:36.000Z,6548
2023-05-17T09:26:53.000Z,1792
2023-05-17T09:28:09.000Z,5084
2023-05-17T09:29:25.000Z,5593
2023-05-17T09:30:41.000Z,8800
2023-05-17T09:31:57.000Z,5567
2023-05-17T09:33:14.000Z,4984
2023-05-17T09:34:30.000Z,4990
2023-05-17T09:35:46.000Z,5307
2023-05-17T09:37:02.000Z,5063
2023-05-17T09:38:19.000Z,1748
2023-05-17T09:39:34.000Z,6195
2023-05-17T09:40:50.000Z,6959
2023-05-17T09:42:06.000Z,7207
2023-05-17T09:43:23.000Z,9409
2023-05-17T09:44:39.000Z,5031
2023-05-17T09:45:55.000Z,7251
2023-05-17T09:47:11.000Z,9989
2023-05-17T09:48:28.260Z,6299
2023-05-17T09:49:44.000Z,6291
2023-05-17T09:51:00.000Z,5914
2023-05-17T09:52:16.951Z,5965
2023-05-17T09:53:32.000Z,2739
2023-05-17T09:54:49.000Z,8933
2023-05-17T09:56:04.000Z,5882
2023-05-17T09:57:20.000Z,5363
2023-05-17T09:58:36.000Z,5007
2023-05-17T09:59:53.000Z,5077
2023-05-17T10:01:09.000Z,5987
2023-05-17T10:02:25.000Z,5470
2023-05-17T10:03:41.000Z,1871
2023-05-17T10:06:14.000Z,8978
2023-05-17T10:07:30.000Z,5450
2023-05-17T10:10:02.000Z,5655
2023-05-17T10:11:19.000Z,5818
2023-05-17T10:12:34.000Z,6661
2023-05-17T10:13:50.000Z,5856
2023-05-17T10:15:06.000Z,5161
2023-05-17T10:16:23.000Z,4711
2023-05-17T10:17:39.000Z,4466
2023-05-17T10:18:55.000Z,3123
2023-05-17T10:20:11.000Z,5609
2023-05-17T10:21:28.000Z,3756
2023-05-17T10:22:44.000Z,8129
2023-05-17T10:24:00.000Z,8825
2023-05-17T10:25:16.000Z,10056
2023-05-17T10:26:33.000Z,6399
2023-05-17T10:27:49.000Z,5385
2023-05-17T10:29:04.000Z,1924
2023-05-17T10:30:20.000Z,9479
2023-05-17T10:31:36.000Z,5445
2023-05-17T10:32:53.000Z,5901
2023-05-17T10:34:09.000Z,2362
2023-05-17T10:35:25.000Z,6842
2023-05-17T10:36:41.000Z,7536
2023-05-17T10:37:58.000Z,8546
2023-05-17T10:39:14.000Z,8888
2023-05-17T10:40:30.000Z,7055
2023-05-17T10:41:46.000Z,8849
2023-05-17T10:43:03.340Z,7752
2023-05-17T10:44:19.000Z,1832
2023-05-17T10:45:34.000Z,7014
2023-05-17T10:46:50.000Z,9821
2023-05-17T10:48:07.000Z,6768
2023-05-17T10:49:23.000Z,5658
2023-05-17T10:50:38.000Z,5321
2023-05-17T10:51:54.000Z,5595
2023-05-17T10:53:10.000Z,9151
2023-05-17T10:54:27.000Z,3210
2023-05-17T10:55:43.000Z,11985
2023-05-17T10:56:59.000Z,6579
2023-05-17T10:58:15.000Z,6762
2023-05-17T10:59:32.000Z,9616
2023-05-17T11:00:48.000Z,7405
2023-05-17T11:02:04.000Z,6923
2023-05-17T11:03:21.101Z,7039
2023-05-17T11:04:37.000Z,6830
2023-05-17T11:05:53.000Z,2889
2023-05-17T11:07:08.000Z,10869
2023-05-17T11:08:24.000Z,4602
2023-05-17T11:09:41.000Z,8258
2023-05-17T11:10:57.000Z,7854
2023-05-17T11:12:13.000Z,7777
2023-05-17T11:13:29.000Z,8346
2023-05-17T11:14:45.000Z,5294
2023-05-17T11:16:02.000Z,4585
2023-05-17T11:17:18.000Z,5110
2023-05-17T11:18:34.000Z,5256
2023-05-17T11:19:50.000Z,3518
2023-05-17T11:21:07.000Z,8478
2023-05-17T11:22:23.000Z,6144
2023-05-17T11:23:38.000Z,3031
2023-05-17T11:24:54.000Z,7531
2023-05-17T11:26:11.000Z,7495
2023-05-17T11:27:27.000Z,7778
2023-05-17T11:28:43.000Z,7742
2023-05-17T11:29:59.000Z,7269
2023-05-17T11:31:16.000Z,6975
2023-05-17T11:32:32.000Z,6542
2023-05-17T11:33:48.737Z,9553
2023-05-17T11:35:04.000Z,6252
2023-05-17T11:36:20.000Z,6497
2023-05-17T11:37:37.000Z,6577
2023-05-17T11:38:53.000Z,6117
2023-05-17T11:40:08.000Z,6342
2023-05-17T11:41:24.000Z,4429
2023-05-17T11:42:41.000Z,7048
2023-05-17T11:43:57.000Z,8863
2023-05-17T11:45:13.000Z,5016
2023-05-17T11:46:29.000Z,7677
2023-05-17T11:47:46.000Z,7928
2023-05-17T11:49:02.000Z,7644
2023-05-17T11:50:18.000Z,7387
2023-05-17T11:51:34.000Z,6910
2023-05-17T11:52:50.000Z,6261
2023-05-17T11:54:07.000Z,5834
2023-05-17T11:55:23.000Z,6558
2023-05-17T11:56:38.961Z,7042
2023-05-17T11:57:54.000Z,7055
2023-05-17T11:59:11.000Z,5809
2023-05-17T12:00:27.000Z,7016
2023-05-17T12:01:43.000Z,6164
2023-05-17T12:02:59.000Z,6264
2023-05-17T12:04:16.000Z,5410
2023-05-17T12:05:32.000Z,4635
2023-05-17T12:06:48.000Z,6211
2023-05-17T12:08:04.000Z,5427
2023-05-17T12:09:21.000Z,5372
2023-05-17T12:10:37.000Z,4740
2023-05-17T12:11:53.760Z,8094
2023-05-17T12:13:08.000Z,6380
2023-05-17T12:14:24.000Z,5518
2023-05-17T12:15:41.000Z,8685
2023-05-17T12:16:57.000Z,6120
2023-05-17T12:18:13.000Z,7777
2023-05-17T12:19:29.000Z,7102
2023-05-17T12:20:46.000Z,9319
2023-05-17T12:22:02.000Z,6795
2023-05-17T12:23:18.000Z,5500
2023-05-17T12:24:34.000Z,5625
2023-05-17T12:25:51.000Z,5696
2023-05-17T12:27:07.000Z,5677
2023-05-17T12:28:23.000Z,5916
2023-05-17T12:29:38.000Z,4456
2023-05-17T12:30:55.000Z,6023
2023-05-17T12:32:11.000Z,5469
2023-05-17T12:33:27.000Z,2714
2023-05-17T12:34:43.000Z,5937
2023-05-17T12:35:59.000Z,6539
2023-05-17T12:37:16.000Z,8607
2023-05-17T12:38:32.000Z,5752
2023-05-17T12:39:48.000Z,4970
2023-05-17T12:41:04.000Z,4770
2023-05-17T12:42:21.000Z,5155
2023-05-17T12:43:37.000Z,5257
2023-05-17T12:44:53.000Z,5336
2023-05-17T12:46:09.000Z,4819
2023-05-17T12:47:25.000Z,4386
2023-05-17T12:48:41.000Z,2222
2023-05-17T12:49:57.000Z,5471
2023-05-17T12:51:13.000Z,8219
2023-05-17T12:52:30.000Z,5492
2023-05-17T12:53:46.000Z,5168
2023-05-17T12:55:02.000Z,2945
2023-05-17T12:56:18.000Z,3873
2023-05-17T12:57:34.000Z,5681
2023-05-17T12:58:51.000Z,6066
2023-05-17T13:00:07.000Z,6265
2023-05-17T13:01:23.000Z,6652
2023-05-17T13:02:40.120Z,7309
2023-05-17T13:03:56.000Z,5075
2023-05-17T13:05:12.000Z,3957
2023-05-17T13:06:27.000Z,4229
2023-05-17T13:07:43.000Z,4224
2023-05-17T13:09:00.000Z,2507
2023-05-17T13:10:16.000Z,7112
2023-05-17T13:11:32.000Z,4860
2023-05-17T13:12:49.010Z,1766
2023-05-17T13:14:04.000Z,5237
2023-05-17T13:15:21.000Z,5910
2023-05-17T13:16:37.000Z,6114
2023-05-17T13:17:53.000Z,5987
2023-05-17T13:19:09.000Z,5864
2023-05-17T13:20:26.000Z,5705
2023-05-17T13:21:42.000Z,5392
2023-05-17T13:22:57.000Z,6739
2023-05-17T13:25:30.000Z,4206
2023-05-17T13:26:46.000Z,3932
2023-05-17T13:28:02.000Z,4036
2023-05-17T13:29:18.000Z,3971
2023-05-17T13:30:35.000Z,3742
2023-05-17T13:31:51.000Z,4065
2023-05-17T13:33:07.000Z,4102
2023-05-17T13:34:23.000Z,1497
2023-05-17T13:35:39.000Z,4895
2023-05-17T13:36:56.000Z,7828
2023-05-17T13:38:12.000Z,5075
2023-05-17T13:39:28.000Z,4942
2023-05-17T13:40:43.000Z,4057
2023-05-17T13:42:00.000Z,3713
2023-05-17T13:43:16.000Z,3186
2023-05-17T13:44:32.000Z,4595
2023-05-17T13:45:48.000Z,5116
2023-05-17T13:47:05.000Z,4390
2023-05-17T13:48:21.000Z,7037
2023-05-17T13:49:37.000Z,5271
2023-05-17T13:50:53.000Z,2056
2023-05-17T13:52:10.000Z,4303
2023-05-17T13:54:42.000Z,4744
2023-05-17T13:55:58.000Z,3870
2023-05-17T13:57:14.000Z,4248
2023-05-17T13:58:30.000Z,4245
2023-05-17T13:59:46.000Z,3840
2023-05-17T14:01:02.000Z,5069
2023-05-17T14:02:18.000Z,3682
2023-05-17T14:03:35.000Z,3266
2023-05-17T14:04:51.000Z,3101
2023-05-17T14:06:07.000Z,3033
2023-05-17T14:07:23.000Z,3776
2023-05-17T14:08:40.000Z,3541
2023-05-17T14:09:56.000Z,3601
2023-05-17T14:11:12.000Z,3678
2023-05-17T14:12:28.000Z,3356
2023-05-17T14:13:45.000Z,2426
2023-05-17T14:15:00.000Z,4552
2023-05-17T14:16:16.000Z,4293
2023-05-17T14:17:32.000Z,4895
2023-05-17T14:20:05.000Z,4574
2023-05-17T14:21:21.000Z,2424
2023-05-17T14:22:37.000Z,3302
2023-05-17T14:23:53.000Z,3685
2023-05-17T14:25:10.000Z,3533
2023-05-17T14:26:26.000Z,2790
2023-05-17T14:27:42.000Z,2799
2023-05-17T14:28:58.000Z,3383
2023-05-17T14:30:15.000Z,2882
2023-05-17T14:32:46.000Z,3072
2023-05-17T14:34:02.000Z,3021
2023-05-17T14:35:19.000Z,3018
2023-05-17T14:36:35.000Z,3103
2023-05-17T14:37:51.000Z,3382
2023-05-17T14:39:07.000Z,3458
2023-05-17T14:40:23.000Z,1931
2023-05-17T14:41:40.000Z,3039
2023-05-17T14:42:56.000Z,3526
2023-05-17T14:44:12.880Z,3673
2023-05-17T14:45:28.000Z,4651
2023-05-17T14:46:45.000Z,3706
2023-05-17T14:48:00.000Z,3396
2023-05-17T14:49:16.000Z,3298
2023-05-17T14:50:32.000Z,3105
2023-05-17T14:51:49.000Z,3212
2023-05-17T14:53:05.000Z,3478
2023-05-17T14:54:21.000Z,3400
2023-05-17T14:55:37.000Z,3201
2023-05-17T14:56:54.224Z,3069
2023-05-17T14:58:10.000Z,2680
2023-05-17T14:59:26.000Z,3452
2023-05-17T15:00:42.000Z,3252
2023-05-17T15:01:58.000Z,2918
2023-05-17T15:03:15.000Z,2717
2023-05-17T15:04:30.000Z,2698
2023-05-17T15:05:45.000Z,2738
2023-05-17T15:07:01.000Z,2707
2023-05-17T15:08:18.000Z,2652
2023-05-17T15:10:50.000Z,2647
2023-05-17T15:12:06.000Z,2817
2023-05-17T15:13:23.000Z,2798
2023-05-17T15:14:39.000Z,2578
2023-05-17T15:15:55.000Z,2857
2023-05-17T15:17:11.000Z,2763
2023-05-17T15:18:27.000Z,2829
2023-05-17T15:19:44.000Z,2841
2023-05-17T15:21:00.000Z,2653
2023-05-17T15:23:31.000Z,2585
2023-05-17T15:24:48.000Z,2559
2023-05-17T15:26:04.000Z,2641
2023-05-17T15:27:20.000Z,2717
2023-05-17T15:28:36.000Z,2806
2023-05-17T15:29:53.000Z,2798
2023-05-17T15:31:09.000Z,2886
2023-05-17T15:32:25.000Z,3011
2023-05-17T15:33:41.000Z,2960
2023-05-17T15:34:58.000Z,2871
2023-05-17T15:36:14.000Z,2565
2023-05-17T15:37:30.000Z,2930
2023-05-17T15:38:45.000Z,3015
2023-05-17T15:40:01.000Z,2586
2023-05-17T15:41:18.000Z,2400
2023-05-17T15:42:34.000Z,2486
2023-05-17T15:43:50.000Z,2584
2023-05-17T15:45:06.000Z,2583
2023-05-17T15:46:23.000Z,2438
2023-05-17T15:47:39.000Z,2410
2023-05-17T15:48:55.000Z,2315
2023-05-17T15:50:11.000Z,2300
2023-05-17T15:51:28.000Z,2125
2023-05-17T15:52:44.000Z,2175
2023-05-17T15:54:00.000Z,2334
2023-05-17T15:55:15.000Z,2277
2023-05-17T15:56:32.000Z,2235
2023-05-17T15:57:48.000Z,2259
2023-05-17T15:59:04.000Z,2364
2023-05-17T16:00:20.000Z,2350
2023-05-17T16:01:36.000Z,2250
2023-05-17T16:02:53.000Z,2708
2023-05-17T16:04:09.000Z,2706
2023-05-17T16:06:41.000Z,2235
2023-05-17T16:07:58.000Z,2173
2023-05-17T16:09:14.000Z,2110
2023-05-17T16:10:30.000Z,2021
2023-05-17T16:11:46.060Z,2005
2023-05-17T16:13:02.000Z,1972
2023-05-17T16:14:18.000Z,1950
2023-05-17T16:16:50.000Z,1929
2023-05-17T16:18:06.000Z,1839
2023-05-17T16:19:23.000Z,1675
2023-05-17T16:20:39.000Z,1772
2023-05-17T16:21:55.000Z,2141
2023-05-17T16:23:11.000Z,2122
2023-05-17T16:24:28.000Z,2050
2023-05-17T16:25:44.000Z,2021
2023-05-17T16:28:16.000Z,2056
2023-05-17T16:29:32.000Z,2049
2023-05-17T16:30:47.000Z,2059
2023-05-17T16:32:03.000Z,2115
2023-05-17T16:33:19.000Z,2133
2023-05-17T16:34:36.000Z,2145
2023-05-17T16:35:52.000Z,2122
2023-05-17T16:37:08.000Z,2024
2023-05-17T16:38:24.000Z,1965
2023-05-17T16:39:40.000Z,1950
2023-05-17T16:40:57.000Z,1902
2023-05-17T16:42:12.000Z,1887
2023-05-17T16:43:27.000Z,2067
2023-05-17T16:44:43.000Z,1211
2023-05-17T16:46:00.000Z,2056
2023-05-17T16:47:16.000Z,1874
2023-05-17T16:48:32.000Z,1224
2023-05-17T16:49:48.000Z,1788
2023-05-17T16:52:21.000Z,1758
2023-05-17T16:53:37.000Z,1744
2023-05-17T16:54:53.000Z,1729
2023-05-17T16:56:10.000Z,1724
2023-05-17T16:57:26.000Z,1677
2023-05-17T16:58:42.000Z,1602
2023-05-17T16:59:57.000Z,1475
2023-05-17T17:01:14.000Z,1590
2023-05-17T17:02:30.000Z,1510
2023-05-17T17:03:46.000Z,1464
2023-05-17T17:05:02.000Z,1705
2023-05-17T17:06:18.000Z,1482
2023-05-17T17:07:35.000Z,1594
2023-05-17T17:08:51.000Z,1518
2023-05-17T17:10:07.000Z,1690
2023-05-17T17:11:23.000Z,1416
2023-05-17T17:12:40.000Z,1617
2023-05-17T17:13:56.596Z,1509
2023-05-17T17:15:12.000Z,1332
2023-05-17T17:16:27.000Z,1520
2023-05-17T17:17:44.000Z,1507
2023-05-17T17:19:00.000Z,1496
2023-05-17T17:20:16.000Z,1481
2023-05-17T17:21:32.000Z,1474
2023-05-17T17:22:49.000Z,1459
2023-05-17T17:24:05.000Z,1448
2023-05-17T17:25:21.000Z,1437
2023-05-17T17:26:37.000Z,1421
2023-05-17T17:27:53.000Z,1414
2023-05-17T17:29:10.000Z,1401
2023-05-17T17:30:26.000Z,1391
2023-05-17T17:31:42.000Z,1379
2023-05-17T17:32:57.000Z,1368
2023-05-17T17:34:14.000Z,1355
2023-05-17T17:35:30.000Z,1342
2023-05-17T17:36:46.000Z,1327